Time;durP1;ratioP1;P1;durP2;ratioP2;P2;SDS_P1;SDS_P2;PMS_P1;PMS_P2;Temp;Humidity;BMP_temperature;BMP_pressure;BME280_temperature;BME280_humidity;BME280_pressure;Samples;Min_cycle;Max_cycle;Signal;HPM_P1;HPM_P2
2021/05/13 00:01:17;;;;;;;12.30;11.07;;;13.30;99.90;;;;;;4987163;28;20217;-77
2021/05/13 00:03:44;;;;;;;15.63;11.23;;;13.20;99.90;;;;;;4990906;28;20539;-77
2021/05/13 00:06:10;;;;;;;12.00;10.80;;;13.20;99.90;;;;;;4995735;28;20579;-76
2021/05/13 00:08:38;;;;;;;13.55;12.13;;;13.20;99.90;;;;;;4996273;28;20770;-76
2021/05/13 00:11:05;;;;;;;13.43;11.95;;;13.00;99.90;;;;;;4982950;28;20204;-77
2021/05/13 00:13:33;;;;;;;12.73;10.68;;;13.00;99.90;;;;;;4978845;28;20201;-77
2021/05/13 00:16:01;;;;;;;14.30;12.82;;;13.00;99.90;;;;;;4975349;28;20220;-76
2021/05/13 00:18:28;;;;;;;14.65;12.40;;;12.90;99.90;;;;;;4962115;28;20221;-76
2021/05/13 00:20:55;;;;;;;13.73;12.32;;;12.90;99.90;;;;;;4995795;28;20308;-76
2021/05/13 00:23:22;;;;;;;12.35;11.05;;;12.90;99.90;;;;;;4995913;28;20205;-77
2021/05/13 00:25:51;;;;;;;13.90;12.60;;;12.90;99.90;;;;;;4996222;28;20281;-76
2021/05/13 00:28:18;;;;;;;11.18;10.07;;;12.80;99.90;;;;;;4996140;28;20283;-76
2021/05/13 00:30:45;;;;;;;12.13;10.90;;;12.90;99.90;;;;;;4987544;28;20194;-77
2021/05/13 00:33:12;;;;;;;11.40;10.27;;;13.00;99.90;;;;;;4978712;28;20189;-77
2021/05/13 00:35:39;;;;;;;11.00;10.00;;;12.90;99.90;;;;;;4995899;28;20197;-77
2021/05/13 00:38:06;;;;;;;11.93;10.68;;;12.90;99.90;;;;;;4979095;28;20312;-76
2021/05/13 00:40:34;;;;;;;11.93;10.55;;;13.00;99.90;;;;;;4978057;28;20299;-77
2021/05/13 00:43:01;;;;;;;13.10;11.70;;;13.20;99.90;;;;;;4995523;28;20256;-77
2021/05/13 00:45:29;;;;;;;10.07;9.27;;;13.20;99.90;;;;;;4995823;28;20205;-76
2021/05/13 00:48:03;;;;;;;10.63;9.52;;;13.10;99.90;;;;;;4978475;28;20660;-77
2021/05/13 00:50:32;;;;;;;12.93;10.43;;;13.00;99.90;;;;;;4994709;28;20201;-77
2021/05/13 00:53:01;;;;;;;10.73;9.57;;;12.90;99.90;;;;;;4992229;28;20251;-77
2021/05/13 00:55:28;;;;;;;10.63;9.52;;;12.80;99.90;;;;;;4962635;28;20205;-76
2021/05/13 00:57:55;;;;;;;10.13;9.13;;;12.80;99.90;;;;;;4994916;28;20576;-76
2021/05/13 01:00:42;;;;;;;9.18;8.23;;;13.00;99.90;;;;;;4994569;28;20205;-76
2021/05/13 01:03:09;;;;;;;8.77;7.90;;;13.00;99.90;;;;;;4987723;28;20205;-77
2021/05/13 01:05:37;;;;;;;9.25;8.13;;;12.70;99.90;;;;;;4977719;28;20194;-77
2021/05/13 01:08:04;;;;;;;12.10;8.00;;;12.70;99.90;;;;;;4993488;28;20257;-77
2021/05/13 01:10:31;;;;;;;15.52;7.68;;;12.60;99.90;;;;;;4961468;28;20190;-76
2021/05/13 01:13:01;;;;;;;7.30;6.47;;;12.50;99.90;;;;;;4994666;28;20197;-77
2021/05/13 01:15:38;;;;;;;10.85;7.20;;;12.60;99.90;;;;;;4977313;28;20205;-76
2021/05/13 01:18:10;;;;;;;9.85;7.13;;;12.50;99.90;;;;;;4980004;28;20217;-77
2021/05/13 01:20:37;;;;;;;9.50;7.05;;;12.50;99.90;;;;;;4994307;28;20347;-77
2021/05/13 01:23:07;;;;;;;9.10;6.28;;;12.40;99.90;;;;;;4994621;28;20285;-76
2021/05/13 01:25:42;;;;;;;8.10;6.22;;;12.40;99.90;;;;;;4977292;28;20287;-77
2021/05/13 01:28:09;;;;;;;7.18;6.55;;;12.30;99.90;;;;;;4961225;28;20221;-77
2021/05/13 01:30:35;;;;;;;7.63;6.82;;;12.30;99.90;;;;;;4976712;28;20193;-76
2021/05/13 01:33:03;;;;;;;6.95;6.25;;;12.40;99.90;;;;;;4976876;28;20198;-77
2021/05/13 01:35:30;;;;;;;8.60;5.65;;;12.30;99.90;;;;;;4994675;28;20292;-77
2021/05/13 01:38:06;;;;;;;8.02;6.57;;;12.30;99.90;;;;;;4994045;28;20308;-76
2021/05/13 01:40:35;;;;;;;9.27;5.90;;;12.40;99.90;;;;;;4960634;28;20205;-76
2021/05/13 01:43:02;;;;;;;8.00;5.95;;;12.20;99.90;;;;;;4994496;28;20194;-76
2021/05/13 01:45:29;;;;;;;7.22;6.15;;;12.10;99.90;;;;;;4994167;28;20210;-76
2021/05/13 01:48:02;;;;;;;7.28;6.07;;;12.10;99.90;;;;;;4981779;28;20714;-76
2021/05/13 01:50:39;;;;;;;8.45;6.20;;;12.30;99.90;;;;;;4993972;28;20236;-76
2021/05/13 01:53:07;;;;;;;9.25;6.55;;;12.40;99.90;;;;;;4976879;28;20297;-76
2021/05/13 01:55:34;;;;;;;5.97;5.47;;;12.30;99.90;;;;;;4994062;28;20200;-77
2021/05/13 01:58:01;;;;;;;13.13;7.30;;;12.30;99.90;;;;;;4993943;28;20312;-77
2021/05/13 02:00:28;;;;;;;12.27;6.78;;;12.30;99.90;;;;;;4993244;28;20248;-77
2021/05/13 02:02:55;;;;;;;7.65;6.55;;;12.30;99.90;;;;;;4992636;28;20244;-77
2021/05/13 02:05:23;;;;;;;8.85;6.47;;;12.30;99.90;;;;;;4974593;28;20204;-77
2021/05/13 02:07:50;;;;;;;7.30;6.32;;;12.30;99.90;;;;;;4990863;28;20307;-76
2021/05/13 02:10:18;;;;;;;7.40;6.18;;;12.20;99.90;;;;;;4976420;28;20186;-77
2021/05/13 02:12:44;;;;;;;9.52;6.40;;;12.20;99.90;;;;;;4993974;28;20197;-77
2021/05/13 02:15:14;;;;;;;7.85;6.47;;;12.30;99.90;;;;;;4974494;28;20208;-76
2021/05/13 02:17:41;;;;;;;10.50;6.10;;;12.40;99.90;;;;;;4976320;28;20221;-76
2021/05/13 02:20:09;;;;;;;12.85;5.72;;;12.40;99.90;;;;;;4975744;28;20252;-77
2021/05/13 02:22:36;;;;;;;6.07;5.57;;;12.30;99.90;;;;;;4976420;28;20201;-77
2021/05/13 02:25:04;;;;;;;12.43;6.65;;;12.20;99.90;;;;;;4993798;28;20193;-76
2021/05/13 02:27:32;;;;;;;7.68;5.93;;;12.20;99.90;;;;;;4992953;28;20211;-76
2021/05/13 02:30:00;;;;;;;5.63;5.10;;;12.30;99.90;;;;;;4993273;28;20201;-77
2021/05/13 02:32:27;;;;;;;8.88;6.13;;;12.10;99.90;;;;;;4993138;28;20197;-77
2021/05/13 02:34:54;;;;;;;5.90;5.30;;;12.10;99.90;;;;;;4976138;28;20205;-76
2021/05/13 02:37:20;;;;;;;9.80;5.38;;;12.10;99.90;;;;;;4992059;28;20208;-77
2021/05/13 02:39:48;;;;;;;10.02;6.35;;;12.00;99.90;;;;;;4959668;28;20221;-76
2021/05/13 02:42:14;;;;;;;7.40;5.78;;;11.90;99.90;;;;;;4989166;28;20221;-76
2021/05/13 02:44:42;;;;;;;8.82;5.53;;;11.90;99.90;;;;;;4960059;28;20205;-77
2021/05/13 02:47:09;;;;;;;6.72;5.93;;;12.10;99.90;;;;;;4976080;28;20197;-76
2021/05/13 02:49:36;;;;;;;7.25;6.18;;;12.10;99.90;;;;;;4992980;28;20266;-77
2021/05/13 02:52:03;;;;;;;6.43;5.40;;;12.20;99.90;;;;;;4975816;28;20197;-77
2021/05/13 02:54:30;;;;;;;8.90;5.75;;;12.10;99.90;;;;;;4993457;28;20288;-77
2021/05/13 02:56:57;;;;;;;9.65;7.03;;;12.10;99.90;;;;;;4992614;28;20197;-77
2021/05/13 02:59:31;;;;;;;10.18;6.22;;;12.10;99.90;;;;;;4975609;28;20239;-76
2021/05/13 03:01:59;;;;;;;7.60;6.18;;;12.10;99.90;;;;;;4975896;28;20272;-77
2021/05/13 03:04:25;;;;;;;9.07;5.68;;;12.00;99.90;;;;;;4975020;28;20204;-76
2021/05/13 03:06:52;;;;;;;8.77;5.32;;;12.00;99.90;;;;;;4975255;28;20214;-76
2021/05/13 03:09:21;;;;;;;7.32;5.97;;;12.10;99.90;;;;;;4975140;28;20229;-77
2021/05/13 03:11:47;;;;;;;11.40;6.68;;;12.10;99.90;;;;;;4974394;28;20248;-77
2021/05/13 03:14:14;;;;;;;13.88;7.75;;;12.10;99.90;;;;;;4975745;28;20255;-76
2021/05/13 03:16:40;;;;;;;9.10;5.75;;;12.10;99.90;;;;;;4992492;28;20197;-77
2021/05/13 03:19:13;;;;;;;6.20;5.60;;;12.00;99.90;;;;;;4992221;28;20209;-76
2021/05/13 03:21:41;;;;;;;9.65;6.18;;;11.90;99.90;;;;;;4975231;28;20228;-77
2021/05/13 03:24:12;;;;;;;8.82;6.28;;;12.00;99.90;;;;;;4992898;28;20205;-76
2021/05/13 03:26:54;;;;;;;7.68;5.75;;;12.00;99.90;;;;;;4992778;28;20220;-76
2021/05/13 03:29:22;;;;;;;13.38;6.57;;;12.10;99.90;;;;;;4975271;28;20256;-76
2021/05/13 03:31:49;;;;;;;10.48;5.82;;;12.20;99.90;;;;;;4975317;28;20641;-76
2021/05/13 03:34:16;;;;;;;8.80;5.72;;;12.30;99.90;;;;;;4976496;28;20209;-77
2021/05/13 03:36:43;;;;;;;10.90;6.03;;;12.30;99.90;;;;;;4976346;28;20200;-77
2021/05/13 03:39:10;;;;;;;7.53;5.68;;;12.30;99.90;;;;;;4992807;28;20221;-77
2021/05/13 03:41:37;;;;;;;11.48;6.57;;;12.40;99.90;;;;;;4988395;28;20221;-77
2021/05/13 03:44:05;;;;;;;6.13;5.53;;;12.30;99.90;;;;;;4979090;28;20201;-76
2021/05/13 03:46:32;;;;;;;10.73;6.75;;;12.30;99.90;;;;;;4997375;28;20197;-77
2021/05/13 03:48:58;;;;;;;6.28;5.60;;;12.30;99.90;;;;;;4988311;28;20307;-77
2021/05/13 03:51:26;;;;;;;8.20;5.35;;;12.40;99.90;;;;;;4996557;28;20190;-77
2021/05/13 03:53:53;;;;;;;8.02;5.63;;;12.30;99.90;;;;;;4996971;28;20263;-76
2021/05/13 03:56:19;;;;;;;9.18;5.60;;;12.30;99.90;;;;;;4996810;28;20201;-77
2021/05/13 03:58:50;;;;;;;7.38;5.50;;;12.10;99.90;;;;;;4979031;28;20317;-77
2021/05/13 04:01:29;;;;;;;5.95;5.10;;;12.00;99.90;;;;;;4994640;28;20308;-77
2021/05/13 04:03:55;;;;;;;5.80;4.47;;;12.00;99.90;;;;;;4978580;28;20198;-77
2021/05/13 04:06:22;;;;;;;7.32;5.15;;;12.10;99.90;;;;;;4995573;28;20575;-76
2021/05/13 04:08:50;;;;;;;7.72;4.35;;;12.20;99.90;;;;;;4977404;28;20488;-77
2021/05/13 04:11:17;;;;;;;14.50;5.50;;;12.20;99.90;;;;;;4994719;28;20194;-76
2021/05/13 04:13:44;;;;;;;8.57;5.03;;;12.20;99.90;;;;;;4994654;28;20573;-77
2021/05/13 04:16:12;;;;;;;9.27;4.45;;;12.10;99.90;;;;;;4977667;28;20201;-76
2021/05/13 04:18:38;;;;;;;10.40;4.32;;;12.20;99.90;;;;;;4994752;28;20300;-76
2021/05/13 04:21:05;;;;;;;8.98;4.40;;;12.10;99.90;;;;;;4977235;28;20704;-76
2021/05/13 04:23:32;;;;;;;6.10;4.53;;;12.10;99.90;;;;;;4970619;28;20205;-76
2021/05/13 04:25:59;;;;;;;6.55;4.30;;;12.10;99.90;;;;;;4994651;28;20664;-76
2021/05/13 04:28:25;;;;;;;8.52;5.13;;;12.00;99.90;;;;;;4977562;28;20229;-76
2021/05/13 04:30:52;;;;;;;7.50;3.70;;;12.10;99.90;;;;;;4994667;28;20197;-77
2021/05/13 04:33:19;;;;;;;5.43;3.30;;;12.20;99.90;;;;;;4995804;28;20193;-77
2021/05/13 04:35:46;;;;;;;6.07;4.18;;;12.20;99.90;;;;;;4994750;28;20212;-76
2021/05/13 04:38:15;;;;;;;6.43;4.03;;;12.10;99.90;;;;;;4993408;28;20382;-77
2021/05/13 04:40:42;;;;;;;7.13;3.65;;;11.90;99.90;;;;;;4977020;28;20221;-76
2021/05/13 04:43:10;;;;;;;8.35;4.72;;;11.90;99.90;;;;;;4994841;28;20293;-77
2021/05/13 04:45:37;;;;;;;7.10;4.00;;;11.90;99.90;;;;;;4994679;28;20197;-76
2021/05/13 04:48:10;;;;;;;7.07;4.20;;;12.00;99.90;;;;;;4994219;28;20221;-76
2021/05/13 04:50:37;;;;;;;7.00;3.92;;;11.90;99.90;;;;;;4993779;28;20197;-77
2021/05/13 04:53:08;;;;;;;10.20;3.90;;;11.90;99.90;;;;;;4994041;28;20284;-76
2021/05/13 04:55:36;;;;;;;10.43;4.80;;;11.80;99.90;;;;;;4977157;28;20694;-76
2021/05/13 04:58:03;;;;;;;9.18;4.35;;;11.90;99.90;;;;;;4977860;28;20244;-76
2021/05/13 05:00:31;;;;;;;4.35;3.90;;;11.90;99.90;;;;;;4994039;28;20237;-77
2021/05/13 05:02:57;;;;;;;4.40;3.63;;;12.10;99.90;;;;;;4977331;28;20569;-76
2021/05/13 05:05:24;;;;;;;8.23;4.85;;;11.90;99.90;;;;;;4976668;28;20198;-76
2021/05/13 05:07:51;;;;;;;9.02;4.47;;;12.00;99.90;;;;;;4994196;28;20296;-76
2021/05/13 05:10:19;;;;;;;5.88;4.00;;;12.10;99.90;;;;;;4976280;28;20221;-76
2021/05/13 05:12:46;;;;;;;9.30;4.50;;;12.20;99.90;;;;;;4976990;28;20233;-76
2021/05/13 05:15:13;;;;;;;7.03;4.85;;;12.20;99.90;;;;;;4988576;28;20200;-75
2021/05/13 05:17:40;;;;;;;8.38;4.13;;;12.40;99.90;;;;;;5018257;28;20205;-75
2021/05/13 05:20:08;;;;;;;11.15;4.32;;;12.50;99.90;;;;;;5000670;28;20252;-76
2021/05/13 05:22:35;;;;;;;6.25;4.28;;;12.40;99.90;;;;;;4995211;28;20557;-77
2021/05/13 05:25:02;;;;;;;7.30;3.88;;;12.40;99.90;;;;;;4994056;28;20730;-77
2021/05/13 05:27:28;;;;;;;5.10;3.80;;;12.60;99.90;;;;;;4993761;28;20193;-77
2021/05/13 05:29:55;;;;;;;3.63;3.33;;;12.70;99.90;;;;;;4994036;28;20744;-77
2021/05/13 05:32:22;;;;;;;7.63;4.38;;;12.50;99.90;;;;;;4993631;28;20283;-76
2021/05/13 05:34:49;;;;;;;7.40;3.88;;;12.50;99.90;;;;;;4994090;28;20196;-76
2021/05/13 05:37:16;;;;;;;9.73;4.20;;;12.50;99.90;;;;;;4976490;28;20335;-77
2021/05/13 05:39:43;;;;;;;6.55;4.13;;;12.40;99.90;;;;;;4993173;28;20204;-77
2021/05/13 05:42:10;;;;;;;7.28;3.75;;;12.50;99.90;;;;;;4994410;28;20208;-76
2021/05/13 05:44:36;;;;;;;7.80;4.57;;;12.60;99.90;;;;;;4994421;28;20229;-77
2021/05/13 05:47:03;;;;;;;5.45;4.50;;;12.80;99.90;;;;;;4993595;28;20217;-77
2021/05/13 05:49:30;;;;;;;8.85;4.28;;;13.00;99.90;;;;;;4993629;28;20221;-76
2021/05/13 05:51:58;;;;;;;8.85;4.32;;;13.00;99.90;;;;;;4993634;28;20186;-77
2021/05/13 05:54:24;;;;;;;7.82;4.25;;;13.00;99.90;;;;;;4961194;28;20201;-77
2021/05/13 05:56:51;;;;;;;8.23;3.85;;;13.00;99.90;;;;;;4976470;28;20574;-77
2021/05/13 05:59:17;;;;;;;6.63;3.95;;;12.90;99.90;;;;;;4975681;28;20240;-77
2021/05/13 06:01:44;;;;;;;6.95;3.42;;;12.90;99.90;;;;;;4992239;28;20224;-77
2021/05/13 06:04:11;;;;;;;8.93;4.07;;;12.90;99.90;;;;;;4976186;28;20331;-77
2021/05/13 06:06:37;;;;;;;8.23;3.88;;;13.00;99.90;;;;;;4993625;28;20209;-77
2021/05/13 06:09:07;;;;;;;6.57;4.05;;;13.20;99.90;;;;;;4992520;28;20811;-77
2021/05/13 06:11:34;;;;;;;9.55;4.15;;;13.10;99.90;;;;;;4983859;28;20473;-77
2021/05/13 06:14:01;;;;;;;7.47;3.67;;;13.00;99.90;;;;;;4993077;28;20518;-77
2021/05/13 06:16:28;;;;;;;9.23;4.07;;;13.00;99.90;;;;;;4993331;28;20217;-77
2021/05/13 06:18:56;;;;;;;10.77;4.28;;;12.90;99.90;;;;;;4992512;28;20213;-77
2021/05/13 06:21:25;;;;;;;9.60;4.65;;;12.90;99.90;;;;;;4992467;28;20213;-77
2021/05/13 06:23:53;;;;;;;4.55;3.60;;;13.10;99.90;;;;;;4976191;28;20199;-76
2021/05/13 06:26:26;;;;;;;7.53;3.97;;;13.30;99.90;;;;;;4956454;28;20249;-77
2021/05/13 06:28:53;;;;;;;6.22;3.42;;;13.10;99.90;;;;;;4981729;28;20221;-77
2021/05/13 06:31:19;;;;;;;10.90;5.18;;;13.30;99.90;;;;;;4992495;28;20225;-77
2021/05/13 06:33:46;;;;;;;10.40;4.05;;;13.30;99.90;;;;;;4975350;28;20198;-76
2021/05/13 06:36:14;;;;;;;5.57;3.63;;;13.60;99.90;;;;;;4975810;28;20197;-77
2021/05/13 06:38:41;;;;;;;7.55;3.78;;;13.60;99.90;;;;;;4974478;28;20217;-77
2021/05/13 06:41:09;;;;;;;5.90;3.50;;;13.80;99.90;;;;;;4974851;28;20213;-76
2021/05/13 06:43:37;;;;;;;11.85;3.70;;;13.70;99.90;;;;;;4992352;28;20232;-77
2021/05/13 06:46:05;;;;;;;8.85;2.97;;;14.00;99.90;;;;;;4992530;28;20244;-77
2021/05/13 06:48:32;;;;;;;7.43;3.42;;;13.90;99.90;;;;;;4992330;28;20304;-76
2021/05/13 06:50:59;;;;;;;7.22;3.65;;;13.70;99.90;;;;;;4975393;28;20244;-77
2021/05/13 06:53:25;;;;;;;6.88;3.10;;;13.90;99.90;;;;;;4976084;28;20347;-77
2021/05/13 06:55:53;;;;;;;6.28;3.38;;;14.00;99.90;;;;;;4992788;28;20213;-76
2021/05/13 06:58:19;;;;;;;5.43;2.70;;;13.90;99.90;;;;;;4992807;28;20307;-77
2021/05/13 07:00:48;;;;;;;5.13;3.25;;;14.00;99.90;;;;;;4992269;28;20695;-76
2021/05/13 07:03:16;;;;;;;5.53;2.85;;;14.10;99.90;;;;;;4993365;28;20201;-77
2021/05/13 07:05:43;;;;;;;6.90;3.40;;;13.90;99.90;;;;;;4992675;28;20731;-76
2021/05/13 07:08:10;;;;;;;5.68;3.50;;;13.50;99.90;;;;;;4992447;28;20236;-77
2021/05/13 07:10:37;;;;;;;4.65;2.35;;;13.40;99.90;;;;;;4991605;28;20190;-77
2021/05/13 07:13:04;;;;;;;5.65;2.92;;;13.70;99.90;;;;;;4992516;28;20193;-77
2021/05/13 07:15:31;;;;;;;3.53;2.65;;;13.90;99.90;;;;;;4991572;28;20205;-77
2021/05/13 07:17:59;;;;;;;6.90;3.88;;;13.90;99.90;;;;;;4992315;28;20221;-76
2021/05/13 07:20:27;;;;;;;7.35;3.50;;;14.30;99.90;;;;;;4973746;28;20316;-76
2021/05/13 07:22:53;;;;;;;5.38;3.10;;;14.40;99.90;;;;;;4992140;28;20194;-76
2021/05/13 07:25:21;;;;;;;4.78;3.75;;;14.50;99.90;;;;;;4992413;28;20197;-76
2021/05/13 07:27:47;;;;;;;9.77;3.45;;;14.40;99.90;;;;;;4992462;28;20237;-76
2021/05/13 07:30:15;;;;;;;7.82;3.20;;;14.30;99.90;;;;;;4991233;28;20195;-77
2021/05/13 07:32:43;;;;;;;7.20;3.08;;;14.40;99.90;;;;;;4974886;28;20200;-77
2021/05/13 07:35:14;;;;;;;4.75;2.35;;;14.50;99.90;;;;;;4991361;28;20267;-77
2021/05/13 07:37:41;;;;;;;4.07;2.20;;;14.80;99.90;;;;;;4990499;28;20229;-77
2021/05/13 07:40:10;;;;;;;3.45;2.20;;;15.00;99.90;;;;;;4973795;28;20694;-77
2021/05/13 07:42:36;;;;;;;3.05;2.33;;;15.00;99.90;;;;;;4974069;28;20284;-76
2021/05/13 07:45:06;;;;;;;3.03;2.03;;;15.10;99.90;;;;;;4991608;28;20193;-77
2021/05/13 07:47:37;;;;;;;5.28;2.25;;;15.30;99.90;;;;;;4974420;28;20209;-77
2021/05/13 07:50:06;;;;;;;3.03;2.33;;;15.20;99.90;;;;;;4991482;28;20197;-77
2021/05/13 07:52:33;;;;;;;4.13;1.90;;;15.20;99.90;;;;;;4973200;28;20198;-77
2021/05/13 07:55:01;;;;;;;2.80;2.17;;;15.40;99.90;;;;;;4980009;28;20193;-77
2021/05/13 07:57:27;;;;;;;5.43;2.10;;;15.30;99.90;;;;;;4992108;28;20220;-76
2021/05/13 07:59:54;;;;;;;3.17;2.20;;;15.00;99.90;;;;;;4975118;28;20197;-77
2021/05/13 08:02:21;;;;;;;7.18;2.28;;;14.90;99.90;;;;;;4976894;28;20214;-77
2021/05/13 08:04:48;;;;;;;9.38;2.78;;;14.90;99.90;;;;;;4977053;28;20209;-77
2021/05/13 08:07:18;;;;;;;3.65;1.55;;;14.70;99.90;;;;;;4993824;28;20723;-78
2021/05/13 08:09:46;;;;;;;6.10;2.72;;;15.20;99.90;;;;;;4992308;28;20205;-77
2021/05/13 08:12:12;;;;;;;3.70;1.52;;;15.40;99.90;;;;;;4992266;28;20194;-77
2021/05/13 08:14:39;;;;;;;3.97;1.98;;;15.40;99.90;;;;;;4992098;28;20201;-78
2021/05/13 08:17:06;;;;;;;3.28;2.35;;;15.50;99.90;;;;;;4991783;28;20217;-77
2021/05/13 08:19:33;;;;;;;5.55;2.13;;;15.30;99.90;;;;;;4991163;28;20711;-77
2021/05/13 08:21:59;;;;;;;3.75;1.90;;;15.40;99.90;;;;;;4991998;28;20205;-76
2021/05/13 08:24:26;;;;;;;2.45;1.50;;;15.70;99.90;;;;;;4991956;28;20284;-76
2021/05/13 08:26:54;;;;;;;7.38;2.03;;;15.70;99.90;;;;;;4994540;28;20201;-77
2021/05/13 08:29:21;;;;;;;2.20;1.80;;;15.70;99.90;;;;;;4992323;28;20296;-76
2021/05/13 08:31:48;;;;;;;5.30;2.65;;;15.90;99.90;;;;;;5004513;28;21310;-77
2021/05/13 08:34:14;;;;;;;7.57;2.70;;;16.20;99.90;;;;;;4995482;28;20249;-77
2021/05/13 08:36:41;;;;;;;5.90;2.47;;;16.20;99.90;;;;;;5007609;28;20210;-76
2021/05/13 08:39:08;;;;;;;3.45;1.70;;;16.10;99.90;;;;;;4988086;28;20274;-76
2021/05/13 08:41:36;;;;;;;4.28;1.70;;;16.20;99.90;;;;;;4983123;28;20224;-77
2021/05/13 08:44:07;;;;;;;6.07;1.00;;;16.00;99.90;;;;;;4996186;28;20193;-78
2021/05/13 08:46:36;;;;;;;1.65;1.17;;;16.00;99.90;;;;;;4999679;28;20189;-77
2021/05/13 08:49:04;;;;;;;7.68;2.78;;;16.20;99.90;;;;;;4996358;28;20217;-77
2021/05/13 08:51:31;;;;;;;2.40;1.25;;;16.10;99.90;;;;;;4995904;28;20208;-78
2021/05/13 08:53:58;;;;;;;3.42;1.40;;;16.50;99.90;;;;;;4998955;28;20201;-78
2021/05/13 08:56:26;;;;;;;3.75;1.70;;;16.30;99.90;;;;;;4996876;28;20593;-77
2021/05/13 08:58:54;;;;;;;2.55;1.55;;;16.20;99.90;;;;;;4995076;28;20703;-77
2021/05/13 09:01:23;;;;;;;4.97;1.58;;;16.20;99.90;;;;;;4977444;28;20210;-78
2021/05/13 09:03:51;;;;;;;9.18;2.85;;;16.30;99.90;;;;;;4997080;28;20255;-77
2021/05/13 09:06:26;;;;;;;4.95;2.03;;;16.30;99.90;;;;;;4998030;28;20196;-78
2021/05/13 09:08:53;;;;;;;4.18;1.98;;;16.70;99.90;;;;;;4991800;28;20280;-78
2021/05/13 09:11:19;;;;;;;3.80;2.05;;;16.80;99.90;;;;;;4981106;28;20665;-77
2021/05/13 09:13:58;;;;;;;3.45;1.70;;;16.90;99.90;;;;;;4996666;28;20622;-77
2021/05/13 09:16:28;;;;;;;2.05;1.20;;;16.80;99.90;;;;;;4977296;28;20220;-76
2021/05/13 09:18:54;;;;;;;2.25;1.45;;;16.50;99.90;;;;;;4981510;28;20209;-77
2021/05/13 09:21:22;;;;;;;1.77;1.40;;;16.40;99.90;;;;;;4995525;28;20217;-78
2021/05/13 09:23:49;;;;;;;3.42;1.75;;;16.30;99.90;;;;;;4994668;28;20694;-77
2021/05/13 09:26:19;;;;;;;4.70;1.73;;;16.60;99.90;;;;;;4994358;28;20221;-77
2021/05/13 09:28:47;;;;;;;3.35;1.50;;;16.50;99.90;;;;;;4975608;28;20245;-77
2021/05/13 09:31:39;;;;;;;1.65;1.25;;;16.50;99.90;;;;;;4990891;28;20325;-77
2021/05/13 09:34:07;;;;;;;3.90;1.48;;;16.70;99.90;;;;;;4993969;28;20587;-78
2021/05/13 09:36:34;;;;;;;2.20;1.27;;;16.80;99.90;;;;;;4977885;28;20288;-78
2021/05/13 09:39:19;;;;;;;2.28;1.02;;;16.50;99.90;;;;;;4994595;28;20244;-80
2021/05/13 09:41:58;;;;;;;2.67;1.70;;;16.50;99.90;;;;;;4970053;28;20704;-78
2021/05/13 09:44:33;;;;;;;6.18;1.60;;;16.80;99.90;;;;;;4989076;28;20197;-78
2021/05/13 09:47:15;;;;;;;3.15;1.48;;;17.00;99.90;;;;;;4992565;28;20569;-77
2021/05/13 09:49:57;;;;;;;3.40;1.30;;;17.30;99.90;;;;;;4975451;28;20212;-77
2021/05/13 09:52:39;;;;;;;4.30;1.20;;;17.60;99.90;;;;;;4994480;28;20193;-79
2021/05/13 09:55:11;;;;;;;6.80;3.85;;;17.60;99.90;;;;;;4994223;28;20206;-79
2021/05/13 09:57:38;;;;;;;5.28;4.45;;;17.80;99.90;;;;;;4978319;28;20269;-79
2021/05/13 10:00:06;;;;;;;3.72;1.90;;;18.00;99.90;;;;;;4995767;28;20205;-79
2021/05/13 10:02:39;;;;;;;2.40;0.98;;;18.30;99.90;;;;;;4997080;28;20217;-79
2021/05/13 10:05:06;;;;;;;2.70;1.35;;;18.40;99.90;;;;;;4996197;28;20201;-80
2021/05/13 10:07:33;;;;;;;3.17;2.88;;;17.90;99.90;;;;;;4975220;28;20262;-78
2021/05/13 10:10:00;;;;;;;2.30;1.10;;;18.00;99.90;;;;;;4981214;28;20281;-79
2021/05/13 10:12:30;;;;;;;2.58;1.20;;;17.80;99.90;;;;;;4993655;28;20209;-79
2021/05/13 10:14:57;;;;;;;3.95;1.45;;;17.60;99.90;;;;;;4995780;28;20200;-79
2021/05/13 10:17:25;;;;;;;5.57;1.55;;;18.00;99.90;;;;;;4994169;28;20221;-78
2021/05/13 10:19:59;;;;;;;2.33;1.40;;;17.80;99.90;;;;;;4992890;28;20720;-80
2021/05/13 10:22:26;;;;;;;3.13;1.25;;;17.50;99.90;;;;;;4993303;28;20695;-77
2021/05/13 10:25:18;;;;;;;2.47;1.17;;;17.60;99.90;;;;;;4976897;28;20221;-80
2021/05/13 10:27:49;;;;;;;7.63;2.90;;;17.80;99.90;;;;;;4995523;28;20240;-78
2021/05/13 10:30:20;;;;;;;3.20;1.58;;;18.00;99.90;;;;;;4976027;28;20217;-78
2021/05/13 10:33:09;;;;;;;4.75;1.20;;;18.00;99.90;;;;;;4967567;28;20284;-79
2021/05/13 10:35:37;;;;;;;2.10;1.42;;;18.10;99.90;;;;;;4992836;28;20288;-77
2021/05/13 10:38:10;;;;;;;5.65;1.73;;;17.60;99.90;;;;;;4982490;28;20723;-78
2021/05/13 10:40:48;;;;;;;1.55;1.10;;;17.80;99.90;;;;;;4976572;28;20216;-77
2021/05/13 10:43:25;;;;;;;4.03;1.20;;;17.90;99.90;;;;;;4995283;28;20205;-79
2021/05/13 10:45:52;;;;;;;3.17;1.80;;;17.30;99.90;;;;;;4977272;28;20212;-78
2021/05/13 10:48:24;;;;;;;2.22;1.15;;;17.70;99.90;;;;;;4994712;28;20220;-78
2021/05/13 10:51:01;;;;;;;3.05;1.73;;;18.30;99.90;;;;;;4993914;28;20787;-78
2021/05/13 10:53:48;;;;;;;5.38;1.65;;;18.40;99.90;;;;;;4978170;28;20201;-77
2021/05/13 10:56:17;;;;;;;6.18;1.80;;;18.70;99.90;;;;;;4994287;28;20247;-78
2021/05/13 10:59:13;;;;;;;5.03;1.58;;;18.70;99.90;;;;;;4995419;28;20232;-77
2021/05/13 11:01:45;;;;;;;2.88;1.27;;;18.90;99.90;;;;;;4975176;28;20225;-78
2021/05/13 11:04:39;;;;;;;3.65;1.75;;;18.70;99.90;;;;;;5003046;28;20603;-78
2021/05/13 11:07:25;;;;;;;2.58;1.45;;;18.90;99.90;;;;;;4997797;28;20216;-79
2021/05/13 11:09:57;;;;;;;3.53;1.67;;;19.00;99.90;;;;;;4980018;28;20256;-77
2021/05/13 11:12:26;;;;;;;5.28;1.75;;;19.00;99.90;;;;;;4993771;28;20208;-79
2021/05/13 11:15:19;;;;;;;2.35;1.20;;;18.90;99.90;;;;;;4993396;28;20608;-78
2021/05/13 11:18:11;;;;;;;3.22;1.35;;;18.80;99.90;;;;;;4995252;28;20277;-78
2021/05/13 11:20:55;;;;;;;6.55;1.80;;;19.00;99.90;;;;;;4991879;28;20224;-78
2021/05/13 11:23:25;;;;;;;4.20;1.73;;;19.30;99.90;;;;;;4996988;28;20255;-78
2021/05/13 11:25:57;;;;;;;8.32;3.90;;;19.30;99.90;;;;;;4991194;28;20220;-77
2021/05/13 11:28:29;;;;;;;4.22;1.38;;;19.40;99.90;;;;;;4989984;28;20209;-78
2021/05/13 11:30:57;;;;;;;2.85;1.20;;;18.80;99.90;;;;;;4992602;28;20528;-77
2021/05/13 11:33:24;;;;;;;4.13;1.33;;;18.60;99.90;;;;;;4993580;28;20197;-77
2021/05/13 11:35:51;;;;;;;2.47;1.30;;;18.60;99.90;;;;;;4979477;28;20292;-79
2021/05/13 11:38:23;;;;;;;3.60;1.60;;;18.80;99.90;;;;;;4994797;28;20241;-77
2021/05/13 11:40:51;;;;;;;6.28;2.20;;;18.90;99.90;;;;;;4978224;28;20210;-77
2021/05/13 11:43:21;;;;;;;3.65;1.25;;;19.00;99.90;;;;;;4991714;28;20197;-77
2021/05/13 11:45:48;;;;;;;6.47;4.10;;;19.40;99.90;;;;;;4993780;28;20303;-78
2021/05/13 11:48:23;;;;;;;3.78;1.70;;;19.60;99.90;;;;;;4966869;28;20715;-77
2021/05/13 11:50:50;;;;;;;4.50;1.20;;;19.30;99.90;;;;;;4991102;28;20204;-77
2021/05/13 11:53:19;;;;;;;3.95;2.17;;;19.40;99.90;;;;;;4990291;28;20205;-78
2021/05/13 11:55:48;;;;;;;2.10;1.55;;;19.30;99.90;;;;;;4992746;28;20729;-77
2021/05/13 11:58:33;;;;;;;7.47;2.17;;;19.00;99.90;;;;;;4975980;28;20217;-77
2021/05/13 12:01:20;;;;;;;7.65;4.55;;;19.10;99.90;;;;;;4993690;28;20245;-77
2021/05/13 12:03:48;;;;;;;2.58;1.63;;;19.20;99.90;;;;;;4981529;28;20205;-77
2021/05/13 12:06:14;;;;;;;5.60;2.15;;;19.30;99.90;;;;;;4995117;28;20683;-77
2021/05/13 12:08:42;;;;;;;5.57;1.95;;;19.20;99.90;;;;;;4995395;28;20291;-77
2021/05/13 12:11:22;;;;;;;5.75;2.83;;;19.60;99.90;;;;;;4984477;28;20197;-77
2021/05/13 12:13:49;;;;;;;4.38;2.53;;;20.10;99.90;;;;;;4980417;28;20208;-78
2021/05/13 12:16:17;;;;;;;3.25;2.53;;;20.40;99.90;;;;;;4996450;28;20228;-80
2021/05/13 12:18:44;;;;;;;3.03;1.80;;;20.40;99.90;;;;;;4993936;28;20253;-79
2021/05/13 12:21:13;;;;;;;5.03;1.73;;;20.40;99.90;;;;;;4991478;28;20221;-80
2021/05/13 12:23:41;;;;;;;3.75;2.28;;;19.70;99.90;;;;;;4994495;28;20252;-78
2021/05/13 12:26:10;;;;;;;4.50;3.00;;;19.90;99.90;;;;;;4996269;28;20578;-80
2021/05/13 12:28:39;;;;;;;2.80;2.13;;;20.20;99.90;;;;;;4993166;28;20390;-79
2021/05/13 12:31:06;;;;;;;8.85;3.03;;;20.30;99.90;;;;;;4990477;28;20447;-78
2021/05/13 12:33:35;;;;;;;2.92;1.92;;;20.60;99.90;;;;;;5000532;28;20209;-78
2021/05/13 12:36:04;;;;;;;5.00;2.20;;;20.60;99.90;;;;;;4995814;28;20193;-76
2021/05/13 12:38:31;;;;;;;8.73;3.03;;;20.50;99.90;;;;;;4974863;28;20229;-79
2021/05/13 12:41:08;;;;;;;9.30;2.75;;;20.80;99.90;;;;;;4962582;28;20213;-80
2021/05/13 12:43:36;;;;;;;4.97;1.77;;;20.90;99.90;;;;;;4996489;28;20710;-77
2021/05/13 12:46:19;;;;;;;4.43;2.75;;;21.10;99.90;;;;;;4990881;28;20221;-78
2021/05/13 12:48:47;;;;;;;5.40;2.67;;;21.50;99.90;;;;;;5001360;28;20771;-78
2021/05/13 12:51:16;;;;;;;5.28;3.65;;;21.50;99.90;;;;;;4979861;28;20289;-79
2021/05/13 12:53:47;;;;;;;4.82;2.00;;;21.60;99.90;;;;;;4997936;28;20204;-80
2021/05/13 12:56:29;;;;;;;7.55;2.40;;;21.60;99.90;;;;;;5012636;28;20212;-78